Time;durP1;ratioP1;P1;durP2;ratioP2;P2;SDS_P1;SDS_P2;PMS_P1;PMS_P2;Temp;Humidity;BMP_temperature;BMP_pressure;BME280_temperature;BME280_humidity;BME280_pressure;Samples;Min_cycle;Max_cycle;Signal;HPM_P1;HPM_P2
2022/11/07 00:01:54;;;;;;;;;;;;;;;;;;5047761;28;19929;-60
2022/11/07 00:04:20;;;;;;;;;;;;;;;;;;5061098;28;20537;-59
2022/11/07 00:06:46;;;;;;;7.03;4.27;;;;;;;;;;5053481;28;20135;-59
2022/11/07 00:09:12;;;;;;;;;;;;;;;;;;5056486;28;19968;-59
2022/11/07 00:11:38;;;;;;;;;;;;;;;;;;5056067;28;20033;-59
2022/11/07 00:14:04;;;;;;;;;;;;;;;;;;5056742;28;20012;-59
2022/11/07 00:16:30;;;;;;;;;;;;;;;;;;5054331;28;19924;-59
2022/11/07 00:18:56;;;;;;;;;;;;;;;;;;5054557;28;19936;-59
2022/11/07 00:21:22;;;;;;;;;;;;;;;;;;5057911;28;19933;-60
2022/11/07 00:23:48;;;;;;;;;;;;;;;;;;5054345;28;19951;-59
2022/11/07 00:26:14;;;;;;;;;;;;;;;;;;5057953;28;19967;-59
2022/11/07 00:28:40;;;;;;;;;;;;;;;;;;5056766;28;19924;-59
2022/11/07 00:31:05;;;;;;;;;;;;;;;;;;5036297;28;20057;-59
2022/11/07 00:33:31;;;;;;;;;;;;;;;;;;5055122;28;19989;-59
2022/11/07 00:35:57;;;;;;;;;;;;;;;;;;5056461;28;19929;-60
2022/11/07 00:38:23;;;;;;;;;;;;;;;;;;5053816;28;19928;-59
2022/11/07 00:40:49;;;;;;;;;;;;;;;;;;5055937;28;20406;-59
2022/11/07 00:43:15;;;;;;;;;;;;;;;;;;5053062;28;19925;-60
2022/11/07 00:45:41;;;;;;;;;;;;;;;;;;5054115;28;19971;-60
2022/11/07 00:48:07;;;;;;;;;;;;;;;;;;5054200;28;20755;-59
2022/11/07 00:50:33;;;;;;;;;;;;;;;;;;5038152;28;19928;-59
2022/11/07 00:52:58;;;;;;;;;;;;;;;;;;5053859;28;19983;-59
2022/11/07 00:55:24;;;;;;;;;;;;;;;;;;5052523;28;19940;-59
2022/11/07 00:57:50;;;;;;;;;;;;;;;;;;5053257;28;20453;-59
2022/11/07 01:00:16;;;;;;;;;;;;;;;;;;5052184;28;20355;-59
2022/11/07 01:02:42;;;;;;;;;;;;;;;;;;5053619;28;20018;-59
2022/11/07 01:05:11;;;;;;;;;;;;;;;;;;5051534;28;19928;-59
2022/11/07 01:07:37;;;;;;;;;;;;;;;;;;5055464;28;19932;-60
2022/11/07 01:10:03;;;;;;;;;;;;;;;;;;5055320;28;19928;-59
2022/11/07 01:12:29;;;;;;;;;;;;;;;;;;5032903;28;20443;-60
2022/11/07 01:14:55;;;;;;;;;;;;;;;;;;5052899;28;20016;-59
2022/11/07 01:17:21;;;;;;;;;;;;;;;;;;5059233;28;19932;-59
2022/11/07 01:19:47;;;;;;;;;;;;;;;;;;5054575;28;20294;-59
2022/11/07 01:22:13;;;;;;;;;;;;;;;;;;5052674;28;19928;-59
2022/11/07 01:24:39;;;;;;;;;;;;;;;;;;5053646;28;19924;-59
2022/11/07 01:27:05;;;;;;;;;;;;;;;;;;5052748;28;19971;-60
2022/11/07 01:29:31;;;;;;;;;;;;;;;;;;5053797;28;19924;-59
2022/11/07 01:31:56;;;;;;;;;;;;;;;;;;5055904;28;19925;-59
2022/11/07 01:34:22;;;;;;;;;;;;;;;;;;5054023;28;19933;-59
2022/11/07 01:36:48;;;;;;;;;;;;;;;;;;5057134;28;19928;-60
2022/11/07 01:39:14;;;;;;;;;;;;;;;;;;5056577;28;20281;-59
2022/11/07 01:41:40;;;;;;;;;;;;;;;;;;5062780;28;19982;-59
2022/11/07 01:44:06;;;;;;;;;;;;;;;;;;5057111;28;19928;-59
2022/11/07 01:46:32;;;;;;;;;;;;;;;;;;5059278;28;19937;-59
2022/11/07 01:48:58;;;;;;;;;;;;;;;;;;5058693;28;19925;-59
2022/11/07 01:51:24;;;;;;;;;;;;;;;;;;5058420;28;19932;-59
2022/11/07 01:53:50;;;;;;;;;;;;;;;;;;5057707;28;19931;-59
2022/11/07 01:56:16;;;;;;;;;;;;;;;;;;5058299;28;19925;-59
2022/11/07 01:58:42;;;;;;;;;;;;;;;;;;5056066;28;20346;-59
2022/11/07 02:01:07;;;;;;;;;;;;;;;;;;5058424;28;20043;-59
2022/11/07 02:03:33;;;;;;;;;;;;;;;;;;5060371;28;19936;-59
2022/11/07 02:05:59;;;;;;;;;;;;;;;;;;5052346;28;19970;-59
2022/11/07 02:08:25;;;;;;;;;;;;;;;;;;5055487;28;20618;-60
2022/11/07 02:10:51;;;;;;;;;;;;;;;;;;5054969;28;19961;-59
2022/11/07 02:13:17;;;;;;;;;;;;;;;;;;5059555;28;20061;-59
2022/11/07 02:15:43;;;;;;;;;;;;;;;;;;5057731;28;19929;-59
2022/11/07 02:18:09;;;;;;;;;;;;;;;;;;5053628;28;19924;-61
2022/11/07 02:20:35;;;;;;;;;;;;;;;;;;5058078;28;20375;-61
2022/11/07 02:23:01;;;;;;;;;;;;;;;;;;5056699;28;19960;-60
2022/11/07 02:25:26;;;;;;;;;;;;;;;;;;5055746;28;19942;-61
2022/11/07 02:27:52;;;;;;;;;;;;;;;;;;5055452;28;19924;-61
2022/11/07 02:30:18;;;;;;;;;;;;;;;;;;5060705;28;19928;-61
2022/11/07 02:32:44;;;;;;;;;;;;;;;;;;5057654;28;20380;-61
2022/11/07 02:35:10;;;;;;;;;;;;;;;;;;5060746;28;19932;-61
2022/11/07 02:37:36;;;;;;;;;;;;;;;;;;5060330;28;20023;-60
2022/11/07 02:40:02;;;;;;;;;;;;;;;;;;5056870;28;19943;-60
2022/11/07 02:42:42;;;;;;;;;;;;;;;;;;5056951;28;19994;-60
2022/11/07 02:45:08;;;;;;;;;;;;;;;;;;5055964;28;19928;-60
2022/11/07 02:47:33;;;;;;;;;;;;;;;;;;5058023;28;20376;-60
2022/11/07 02:49:59;;;;;;;;;;;;;;;;;;5058974;28;19928;-60
2022/11/07 02:52:26;;;;;;;;;;;;;;;;;;5056816;28;19940;-60
2022/11/07 02:54:51;;;;;;;;;;;;;;;;;;5055737;28;20068;-60
2022/11/07 02:57:17;;;;;;;;;;;;;;;;;;5054129;28;19933;-61
2022/11/07 02:59:43;;;;;;;;;;;;;;;;;;5059152;28;19928;-60
2022/11/07 03:02:09;;;;;;;;;;;;;;;;;;5057230;28;19931;-60
2022/11/07 03:04:35;;;;;;;;;;;;;;;;;;5057964;28;19925;-60
2022/11/07 03:07:01;;;;;;;;;;;;;;;;;;5052433;28;19932;-60
2022/11/07 03:09:27;;;;;;;;;;;;;;;;;;5055284;28;20834;-61
2022/11/07 03:11:53;;;;;;;;;;;;;;;;;;5055931;28;19976;-60
2022/11/07 03:14:19;;;;;;;;;;;;;;;;;;5056248;28;20015;-60
2022/11/07 03:16:44;;;;;;;;;;;;;;;;;;5058061;28;20323;-61
2022/11/07 03:19:10;;;;;;;;;;;;;;;;;;5055805;28;19925;-60
2022/11/07 03:21:36;;;;;;;;;;;;;;;;;;5057992;28;19928;-60
2022/11/07 03:24:02;;;;;;;;;;;;;;;;;;5060885;28;19932;-61
2022/11/07 03:26:28;;;;;;;;;;;;;;;;;;5054841;28;19928;-61
2022/11/07 03:28:54;;;;;;;;;;;;;;;;;;5055788;28;19986;-61
2022/11/07 03:31:20;;;;;;;;;;;;;;;;;;5060120;28;20357;-61
2022/11/07 03:33:46;;;;;;;;;;;;;;;;;;5055294;28;19978;-60
2022/11/07 03:36:12;;;;;;;;;;;;;;;;;;5058332;28;19971;-61
2022/11/07 03:38:38;;;;;;;;;;;;;;;;;;5058873;28;19929;-60
2022/11/07 03:41:04;;;;;;;;;;;;;;;;;;5055275;28;19967;-60
2022/11/07 03:43:29;;;;;;;;;;;;;;;;;;5057940;28;19931;-61
2022/11/07 03:45:55;;;;;;;;;;;;;;;;;;5057711;28;20307;-60
2022/11/07 03:48:21;;;;;;;;;;;;;;;;;;5058606;28;19986;-61
2022/11/07 03:50:47;;;;;;;;;;;;;;;;;;5054754;28;19928;-60
2022/11/07 03:53:13;;;;;;;;;;;;;;;;;;5055984;28;19974;-60
2022/11/07 03:55:39;;;;;;;;;;;;;;;;;;5057016;28;19925;-60
2022/11/07 03:58:05;;;;;;;;;;;;;;;;;;5055973;28;19925;-61
2022/11/07 04:00:31;;;;;;;;;;;;;;;;;;5056369;28;19932;-60
2022/11/07 04:02:57;;;;;;;;;;;;;;;;;;5059750;28;20568;-61
2022/11/07 04:05:23;;;;;;;;;;;;;;;;;;5059906;28;19928;-61
2022/11/07 04:07:49;;;;;;;;;;;;;;;;;;5058061;28;20432;-61
2022/11/07 04:10:15;;;;;;;;;;;;;;;;;;5059539;28;19928;-61
2022/11/07 04:18:10;;;;;;;;;;;;;;;;;;5056220;28;19928;-61
2022/11/07 04:20:36;;;;;;;;;;;;;;;;;;5056715;28;19928;-61
2022/11/07 04:23:02;;;;;;;;;;;;;;;;;;5055621;28;19924;-60
2022/11/07 04:28:15;;;;;;;;;;;;;;;;;;5055591;28;19924;-61
2022/11/07 04:30:41;;;;;;;;;;;;;;;;;;5055218;28;19932;-61
2022/11/07 04:33:07;;;;;;;;;;;;;;;;;;5056692;28;20658;-60
2022/11/07 04:35:32;;;;;;;;;;;;;;;;;;5059507;28;19928;-61
2022/11/07 04:37:58;;;;;;;;;;;;;;;;;;5057498;28;20379;-61
2022/11/07 04:40:24;;;;;;;;;;;;;;;;;;5057313;28;19929;-61
2022/11/07 04:42:50;;;;;;;;;;;;;;;;;;5057580;28;20011;-61
2022/11/07 04:45:16;;;;;;;;;;;;;;;;;;5056267;28;19985;-61
2022/11/07 04:47:42;;;;;;;;;;;;;;;;;;5053664;28;19932;-61
2022/11/07 04:50:08;;;;;;;;;;;;;;;;;;5057257;28;19928;-61
2022/11/07 04:52:34;;;;;;;;;;;;;;;;;;5056377;28;20003;-60
2022/11/07 04:55:00;;;;;;;;;;;;;;;;;;5054658;28;19972;-61
2022/11/07 04:57:26;;;;;;;;;;;;;;;;;;5052332;28;19925;-61
2022/11/07 04:59:52;;;;;;;;;;;;;;;;;;5057789;28;19924;-61
2022/11/07 05:02:17;;;;;;;;;;;;;;;;;;5055238;28;19939;-61
2022/11/07 05:04:43;;;;;;;;;;;;;;;;;;5059248;28;20372;-60
2022/11/07 05:07:09;;;;;;;;;;;;;;;;;;5057879;28;19932;-60
2022/11/07 05:09:35;;;;;;;;;;;;;;;;;;5055965;28;19931;-61
2022/11/07 05:12:01;;;;;;;;;;;;;;;;;;5052539;28;19976;-61
2022/11/07 05:14:29;;;;;;;;;;;;;;;;;;5061252;28;19928;-61
2022/11/07 05:16:55;;;;;;;;;;;;;;;;;;5057553;28;19924;-61
2022/11/07 05:19:21;;;;;;;;;;;;;;;;;;5056616;28;20402;-60
2022/11/07 05:23:10;;;;;;;;;;;;;;;;;;5059119;28;19947;-61
2022/11/07 05:24:33;;;;;;;;;;;;;;;;;;5057379;28;19929;-60
2022/11/07 05:26:59;;;;;;;;;;;;;;;;;;5054923;28;20430;-60
2022/11/07 05:29:25;;;;;;;;;;;;;;;;;;5056291;28;19925;-61
2022/11/07 05:31:51;;;;;;;;;;;;;;;;;;5057059;28;20019;-61
2022/11/07 05:34:17;;;;;;;;;;;;;;;;;;5059132;28;19941;-61
2022/11/07 05:36:42;;;;;;;;;;;;;;;;;;5062379;28;20496;-61
2022/11/07 05:39:08;;;;;;;;;;;;;;;;;;5059195;28;19929;-61
2022/11/07 05:41:34;;;;;;;;;;;;;;;;;;5059708;28;20064;-61
2022/11/07 05:44:01;;;;;;;;;;;;;;;;;;5063293;28;19925;-61
2022/11/07 05:46:26;;;;;;;;;;;;;;;;;;5055357;28;19928;-61
2022/11/07 05:48:52;;;;;;;;;;;;;;;;;;5059493;28;19931;-61
2022/11/07 05:51:18;;;;;;;;;;;;;;;;;;5059446;28;19929;-61
2022/11/07 05:53:44;;;;;;;;;;;;;;;;;;5059562;28;19932;-61
2022/11/07 05:56:10;;;;;;;;;;;;;;;;;;5057337;28;19925;-61
2022/11/07 05:58:36;;;;;;;;;;;;;;;;;;5054956;28;20382;-61
2022/11/07 06:01:02;;;;;;;;;;;;;;;;;;5038252;28;19924;-61
2022/11/07 06:03:28;;;;;;;;;;;;;;;;;;5034043;28;19929;-61
2022/11/07 06:05:54;;;;;;;;;;;;;;;;;;5035615;28;19925;-61
2022/11/07 06:08:20;;;;;;;;;;;;;;;;;;5038658;28;19933;-61
2022/11/07 06:10:45;;;;;;;;;;;;;;;;;;5039878;28;19925;-61
2022/11/07 06:13:11;;;;;;;;;;;;;;;;;;5043144;28;20022;-61
2022/11/07 06:15:37;;;;;;;;;;;;;;;;;;5043329;28;20041;-61
2022/11/07 06:18:03;;;;;;;;;;;;;;;;;;5035223;28;19936;-61
2022/11/07 06:20:29;;;;;;;;;;;;;;;;;;5042631;28;19928;-61
2022/11/07 06:22:55;;;;;;;;;;;;;;;;;;5036977;28;19929;-61
2022/11/07 06:25:21;;;;;;;;;;;;;;;;;;5039922;28;19929;-61
2022/11/07 06:27:47;;;;;;;;;;;;;;;;;;5039484;28;20045;-61
2022/11/07 06:30:13;;;;;;;;;;;;;;;;;;5036755;28;19925;-61
2022/11/07 06:32:43;;;;;;;;;;;;;;;;;;5041093;28;19925;-61
2022/11/07 06:35:08;;;;;;;;;;;;;;;;;;5036853;28;20386;-61
2022/11/07 06:37:34;;;;;;;;;;;;;;;;;;5038091;28;19939;-61
2022/11/07 06:40:00;;;;;;;;;;;;;;;;;;5037460;28;19936;-61
2022/11/07 06:42:26;;;;;;;;;;;;;;;;;;5041164;28;19925;-61
2022/11/07 06:44:52;;;;;;;;;;;;;;;;;;5038617;28;19969;-61
2022/11/07 06:47:18;;;;;;;;;;;;;;;;;;5040022;28;20403;-61
2022/11/07 06:49:44;;;;;;;;;;;;;;;;;;5036353;28;20008;-61
2022/11/07 06:52:10;;;;;;;;;;;;;;;;;;5034841;28;19971;-61
2022/11/07 06:54:36;;;;;;;;;;;;;;;;;;5040638;28;20360;-61
2022/11/07 06:57:02;;;;;;;;;;;;;;;;;;5034282;28;19928;-61
2022/11/07 06:59:27;;;;;;;;;;;;;;;;;;5039747;28;19929;-61
2022/11/07 07:01:53;;;;;;;;;;;;;;;;;;5055116;28;20275;-61
2022/11/07 07:04:19;;;;;;;;;;;;;;;;;;5062498;28;20375;-61
2022/11/07 07:06:45;;;;;;;;;;;;;;;;;;5060670;28;19932;-61
2022/11/07 07:09:11;;;;;;;;;;;;;;;;;;5057733;28;19925;-61
2022/11/07 07:11:37;;;;;;;;;;;;;;;;;;5057317;28;20207;-61
2022/11/07 07:14:03;;;;;;;;;;;;;;;;;;5054100;28;19963;-61
2022/11/07 07:16:29;;;;;;;;;;;;;;;;;;5054937;28;19928;-61
2022/11/07 07:18:55;;;;;;;;;;;;;;;;;;5056872;28;19925;-61
2022/11/07 07:21:21;;;;;;;;;;;;;;;;;;5024636;28;19928;-61
2022/11/07 07:23:47;;;;;;;;;;;;;;;;;;5023603;28;20019;-61
2022/11/07 07:26:13;;;;;;;;;;;;;;;;;;5054577;28;19925;-61
2022/11/07 07:28:38;;;;;;;;;;;;;;;;;;5056449;28;19975;-61
2022/11/07 07:31:04;;;;;;;;;;;;;;;;;;5050138;28;20349;-61
2022/11/07 07:33:30;;;;;;;;;;;;;;;;;;5050673;28;19931;-61
2022/11/07 07:35:56;;;;;;;;;;;;;;;;;;5047687;28;19935;-61
2022/11/07 07:38:22;;;;;;;;;;;;;;;;;;5046379;28;19924;-61
2022/11/07 07:40:48;;;;;;;;;;;;;;;;;;5047815;28;19932;-61
2022/11/07 07:43:14;;;;;;;;;;;;;;;;;;5047608;28;20528;-61
2022/11/07 07:45:40;;;;;;;;;;;;;;;;;;5048041;28;19940;-61
2022/11/07 07:48:06;;;;;;;;;;;;;;;;;;5054581;28;19931;-61
2022/11/07 07:50:31;;;;;;;;;;;;;;;;;;5052708;28;20466;-61
2022/11/07 07:52:57;;;;;;;;;;;;;;;;;;5046623;28;19929;-61
2022/11/07 07:55:23;;;;;;;;;;;;;;;;;;5046961;28;19925;-61
2022/11/07 07:57:49;;;;;;;;;;;;;;;;;;5047371;28;19971;-61
2022/11/07 08:00:15;;;;;;;;;;;;;;;;;;5046608;28;19939;-61
2022/11/07 08:02:42;;;;;;;;;;;;;;;;;;5059056;28;19940;-61
2022/11/07 08:05:09;;;;;;;;;;;;;;;;;;5062519;28;20016;-61
2022/11/07 08:07:35;;;;;;;;;;;;;;;;;;5079098;28;19928;-53
2022/11/07 08:10:01;;;;;;;;;;;;;;;;;;5061900;28;20399;-57
2022/11/07 08:12:27;;;;;;;;;;;;;;;;;;5048983;28;19935;-57
2022/11/07 08:14:53;;;;;;;;;;;;;;;;;;5047082;28;19924;-55
2022/11/07 08:17:19;;;;;;;;;;;;;;;;;;5053208;28;19931;-59
2022/11/07 08:19:44;;;;;;;;;;;;;;;;;;5061045;28;19966;-59
2022/11/07 08:22:10;;;;;;;;;;;;;;;;;;5063135;28;19927;-59
2022/11/07 08:24:36;;;;;;;;;;;;;;;;;;5059218;28;19920;-59
2022/11/07 08:27:02;;;;;;;;;;;;;;;;;;5066133;28;19924;-59
2022/11/07 08:29:28;;;;;;;;;;;;;;;;;;5061022;28;19936;-59
2022/11/07 08:31:54;;;;;;;;;;;;;;;;;;5057741;28;19925;-59
2022/11/07 08:34:20;;;;;;;;;;;;;;;;;;5059654;28;19943;-59
2022/11/07 08:36:46;;;;;;;;;;;;;;;;;;5053922;28;19960;-59
2022/11/07 08:39:12;;;;;;;;;;;;;;;;;;5052244;28;19921;-59
2022/11/07 08:41:38;;;;;;;;;;;;;;;;;;5053823;28;19935;-59
2022/11/07 08:44:04;;;;;;;;;;;;;;;;;;5053117;28;19931;-59
2022/11/07 08:46:29;;;;;;;;;;;;;;;;;;5054741;28;19928;-59
2022/11/07 08:48:55;;;;;;;;;;;;;;;;;;5069933;28;20767;-59
2022/11/07 08:51:21;;;;;;;;;;;;;;;;;;5069215;28;19921;-59
2022/11/07 08:53:47;;;;;;;;;;;;;;;;;;5066603;28;19928;-59
2022/11/07 08:56:13;;;;;;;;;;;;;;;;;;5069825;28;20042;-59
2022/11/07 08:58:39;;;;;;;;;;;;;;;;;;5070305;28;20001;-59
2022/11/07 09:01:05;;;;;;;;;;;;;;;;;;5066154;28;20284;-58
2022/11/07 09:03:31;;;;;;;;;;;;;;;;;;5062865;28;20490;-58
2022/11/07 09:05:57;;;;;;;;;;;;;;;;;;5059258;28;19936;-59
2022/11/07 09:08:23;;;;;;;;;;;;;;;;;;5066982;28;19920;-59
2022/11/07 09:10:49;;;;;;;;;;;;;;;;;;5069109;28;19994;-59
2022/11/07 09:13:15;;;;;;;;;;;;;;;;;;5063274;28;19924;-59
2022/11/07 09:15:41;;;;;;;;;;;;;;;;;;5057568;28;19940;-59
2022/11/07 09:18:07;;;;;;;;;;;;;;;;;;5055639;28;20462;-59
2022/11/07 09:20:33;;;;;;;;;;;;;;;;;;5056557;28;19924;-59
2022/11/07 09:22:59;;;;;;;;;;;;;;;;;;5056984;28;20324;-59
2022/11/07 09:25:24;;;;;;;;;;;;;;;;;;5062513;28;19971;-59
2022/11/07 09:27:50;;;;;;;9.15;4.40;;;;;;;;;;5060156;28;19920;-59
2022/11/07 09:30:17;;;;;;;9.32;3.55;;;;;;;;;;5060262;28;20041;-59
2022/11/07 09:32:43;;;;;;;10.85;3.83;;;;;;;;;;5059898;28;20090;-59
2022/11/07 09:35:09;;;;;;;11.20;3.63;;;;;;;;;;5064030;28;20044;-58
2022/11/07 09:37:39;;;;;;;9.85;3.58;;;;;;;;;;5067775;28;20044;-59
2022/11/07 09:40:05;;;;;;;11.60;4.20;;;;;;;;;;5061611;28;20075;-61
2022/11/07 09:42:37;;;;;;;10.98;4.13;;;;;;;;;;5063836;28;20040;-60
2022/11/07 09:45:03;;;;;;;;;;;;;;;;;;5057366;28;20019;-61
2022/11/07 09:47:29;;;;;;;;;;;;;;;;;;5063069;28;20019;-61
2022/11/07 09:49:55;;;;;;;;;;;;;;;;;;5065587;28;19974;-61
2022/11/07 09:52:21;;;;;;;;;;;;;;;;;;5068367;28;20268;-61
2022/11/07 09:54:47;;;;;;;;;;;;;;;;;;5070165;28;20341;-61
2022/11/07 09:57:13;;;;;;;;;;;;;;;;;;5070249;28;19920;-61
2022/11/07 09:59:39;;;;;;;;;;;;;;;;;;5067752;28;19924;-59
2022/11/07 10:02:05;;;;;;;;;;;;;;;;;;5069409;28;19924;-59
2022/11/07 10:04:31;;;;;;;;;;;;;;;;;;5068749;28;19989;-59
2022/11/07 10:06:57;;;;;;;;;;;;;;;;;;5068751;28;19931;-58
2022/11/07 10:09:22;;;;;;;;;;;;;;;;;;5067911;28;19920;-59
2022/11/07 10:11:48;;;;;;;;;;;;;;;;;;5067993;28;19947;-59
2022/11/07 10:14:14;;;;;;;;;;;;;;;;;;5067493;28;20394;-59
2022/11/07 10:16:42;;;;;;;;;;;;;;;;;;5068648;28;19993;-59
2022/11/07 10:19:08;;;;;;;;;;;;;;;;;;5068905;28;20399;-59
2022/11/07 10:21:34;;;;;;;;;;;;;;;;;;5068202;28;19942;-59
2022/11/07 10:24:00;;;;;;;;;;;;;;;;;;5069023;28;20391;-58
2022/11/07 10:26:26;;;;;;;;;;;;;;;;;;5068324;28;20332;-58
2022/11/07 10:28:51;;;;;;;;;;;;;;;;;;5068363;28;19927;-59
2022/11/07 10:31:17;;;;;;;;;;;;;;;;;;5068474;28;19944;-59
2022/11/07 10:33:43;;;;;;;;;;;;;;;;;;5068527;28;19920;-59
2022/11/07 10:36:09;;;;;;;;;;;;;;;;;;5055817;28;19924;-59
2022/11/07 10:38:35;;;;;;;;;;;;;;;;;;5058048;28;19971;-60
2022/11/07 10:41:01;;;;;;;;;;;;;;;;;;5053812;28;19990;-60
2022/11/07 10:43:27;;;;;;;;;;;;;;;;;;5059900;28;19920;-60
2022/11/07 10:45:53;;;;;;;;;;;;;;;;;;5067812;28;20409;-60
2022/11/07 10:48:19;;;;;;;;;;;;;;;;;;5056013;28;19930;-60
2022/11/07 10:50:45;;;;;;;;;;;;;;;;;;5067426;28;19924;-60
2022/11/07 10:53:11;;;;;;;;;;;;;;;;;;5059118;28;20011;-59
2022/11/07 10:55:37;;;;;;;;;;;;;;;;;;5047772;28;19921;-60
2022/11/07 10:58:06;;;;;;;6.60;2.50;;;;;;;;;;5048454;28;19920;-60
2022/11/07 11:00:33;;;;;;;9.45;3.42;;;;;;;;;;5044926;28;20057;-59
2022/11/07 11:02:59;;;;;;;8.05;2.88;;;;;;;;;;5062677;28;20048;-59
2022/11/07 11:05:27;;;;;;;11.85;3.35;;;;;;;;;;5065755;28;20044;-59
2022/11/07 11:07:54;;;;;;;8.63;2.95;;;;;;;;;;5051743;28;20052;-59
2022/11/07 11:10:26;;;;;;;8.48;3.42;;;;;;;;;;5054503;28;20041;-60
2022/11/07 11:12:52;;;;;;;7.55;3.08;;;;;;;;;;5052638;28;20041;-59
2022/11/07 11:15:23;;;;;;;8.05;4.10;;;;;;;;;;5046017;28;20484;-60
2022/11/07 11:17:59;;;;;;;9.02;3.28;;;;;;;;;;5029491;28;20139;-59
2022/11/07 11:20:34;;;;;;;8.88;3.20;;;;;;;;;;5058899;28;20052;-60
2022/11/07 11:23:01;;;;;;;5.78;2.63;;;;;;;;;;5055593;28;20048;-60
2022/11/07 11:25:27;;;;;;;12.27;2.95;;;;;;;;;;5066327;28;20169;-60
2022/11/07 11:28:16;;;;;;;8.48;2.78;;;;;;;;;;5060796;28;20504;-59
2022/11/07 11:30:43;;;;;;;6.22;2.63;;;;;;;;;;5040027;28;20164;-59
2022/11/07 11:33:15;;;;;;;5.65;2.60;;;;;;;;;;5049280;28;20041;-59
2022/11/07 11:35:50;;;;;;;6.57;2.75;;;;;;;;;;5047038;28;20488;-61
2022/11/07 11:38:16;;;;;;;7.75;2.80;;;;;;;;;;5054437;28;20633;-60
2022/11/07 11:40:46;;;;;;;6.20;2.63;;;;;;;;;;5057094;28;20438;-60
2022/11/07 11:43:18;;;;;;;8.77;2.77;;;;;;;;;;5053279;28;20048;-60
2022/11/07 11:45:43;;;;;;;;;;;;;;;;;;5047381;28;19924;-60
2022/11/07 11:48:09;;;;;;;;;;;;;;;;;;5047293;28;20426;-60
2022/11/07 11:50:35;;;;;;;;;;;;;;;;;;5046224;28;19931;-60
2022/11/07 11:53:01;;;;;;;;;;;;;;;;;;5028544;28;20003;-60
2022/11/07 11:55:27;;;;;;;;;;;;;;;;;;5065112;28;20444;-60
2022/11/07 11:57:53;;;;;;;;;;;;;;;;;;5066705;28;19973;-60
2022/11/07 12:00:19;;;;;;;;;;;;;;;;;;5065869;28;19924;-60
2022/11/07 12:02:46;;;;;;;;;;;;;;;;;;5053643;28;20287;-60
2022/11/07 12:05:11;;;;;;;;;;;;;;;;;;5054916;28;19975;-60
2022/11/07 12:07:37;;;;;;;;;;;;;;;;;;5050051;28;20001;-60
2022/11/07 12:10:03;;;;;;;;;;;;;;;;;;5058194;28;19925;-60
2022/11/07 12:12:29;;;;;;;;;;;;;;;;;;5051774;28;19928;-60
2022/11/07 12:15:08;;;;;;;9.38;3.17;;;;;;;;;;5060282;28;20497;-60
2022/11/07 12:17:49;;;;;;;9.82;3.30;;;;;;;;;;5055876;28;20044;-60
2022/11/07 12:20:18;;;;;;;6.70;2.67;;;;;;;;;;5047550;28;20052;-60
2022/11/07 12:23:02;;;;;;;6.05;2.80;;;;;;;;;;5061427;28;20032;-60
2022/11/07 12:25:39;;;;;;;7.38;3.15;;;;;;;;;;5057805;28;20037;-60
2022/11/07 12:28:24;;;;;;;5.25;2.65;;;;;;;;;;5056646;28;20055;-60
2022/11/07 12:30:50;;;;;;;;;;;;;;;;;;5054735;28;20041;-60
2022/11/07 12:33:16;;;;;;;;;;;;;;;;;;5053627;28;19931;-60
2022/11/07 12:35:42;;;;;;;;;;;;;;;;;;5055635;28;20786;-60
2022/11/07 12:38:08;;;;;;;;;;;;;;;;;;5064273;28;19932;-60
2022/11/07 12:40:34;;;;;;;;;;;;;;;;;;5056873;28;19928;-60
2022/11/07 12:43:00;;;;;;;;;;;;;;;;;;5058014;28;19978;-60
2022/11/07 12:45:25;;;;;;;;;;;;;;;;;;5056164;28;20397;-60
2022/11/07 12:47:51;;;;;;;;;;;;;;;;;;5064015;28;19979;-60
2022/11/07 12:50:17;;;;;;;;;;;;;;;;;;5061696;28;19928;-60
2022/11/07 12:52:43;;;;;;;;;;;;;;;;;;5059180;28;20497;-60
2022/11/07 12:55:09;;;;;;;;;;;;;;;;;;5055275;28;19925;-60
2022/11/07 12:57:35;;;;;;;;;;;;;;;;;;5054151;28;19927;-60
2022/11/07 13:00:01;;;;;;;;;;;;;;;;;;5055774;28;20550;-59
2022/11/07 13:02:27;;;;;;;;;;;;;;;;;;5057367;28;19920;-60
2022/11/07 13:04:53;;;;;;;;;;;;;;;;;;5055733;28;19920;-60
2022/11/07 13:07:19;;;;;;;;;;;;;;;;;;5047604;28;19947;-60
2022/11/07 13:09:44;;;;;;;;;;;;;;;;;;5062690;28;19968;-60
2022/11/07 13:12:11;;;;;;;;;;;;;;;;;;5062554;28;19924;-60
2022/11/07 13:14:37;;;;;;;;;;;;;;;;;;5056228;28;19924;-60
2022/11/07 13:17:03;;;;;;;;;;;;;;;;;;5063858;28;19927;-60
2022/11/07 13:19:29;;;;;;;;;;;;;;;;;;5050852;28;19920;-60
2022/11/07 13:21:55;;;;;;;;;;;;;;;;;;5063845;28;19920;-60
2022/11/07 13:24:21;;;;;;;;;;;;;;;;;;5058431;28;20286;-60
2022/11/07 13:26:47;;;;;;;;;;;;;;;;;;5059124;28;19921;-60
2022/11/07 13:29:13;;;;;;;;;;;;;;;;;;5061151;28;19927;-60
2022/11/07 13:31:39;;;;;;;;;;;;;;;;;;5056063;28;20048;-60
2022/11/07 13:34:05;;;;;;;;;;;;;;;;;;5055768;28;19920;-60
2022/11/07 13:36:30;;;;;;;;;;;;;;;;;;5057960;28;19929;-60
2022/11/07 13:38:56;;;;;;;;;;;;;;;;;;5055019;28;20383;-60
2022/11/07 13:41:22;;;;;;;;;;;;;;;;;;5057182;28;19927;-60
2022/11/07 13:43:48;;;;;;;;;;;;;;;;;;5063350;28;19976;-60
2022/11/07 13:46:14;;;;;;;;;;;;;;;;;;5063981;28;19928;-60
2022/11/07 13:48:40;;;;;;;;;;;;;;;;;;5056720;28;20253;-60
2022/11/07 13:51:06;;;;;;;;;;;;;;;;;;5061248;28;19959;-60
2022/11/07 13:53:32;;;;;;;;;;;;;;;;;;5062836;28;19950;-60
2022/11/07 13:55:58;;;;;;;;;;;;;;;;;;5062443;28;19924;-55
2022/11/07 13:58:24;;;;;;;;;;;;;;;;;;5055082;28;19920;-55
2022/11/07 14:00:49;;;;;;;;;;;;;;;;;;5052509;28;19947;-66
2022/11/07 14:03:15;;;;;;;;;;;;;;;;;;5064267;28;19920;-64
2022/11/07 14:05:41;;;;;;;;;;;;;;;;;;5062146;28;19920;-61
2022/11/07 14:08:07;;;;;;;;;;;;;;;;;;5068383;28;21105;-59
2022/11/07 14:10:33;;;;;;;;;;;;;;;;;;5058890;28;20002;-60
2022/11/07 14:12:59;;;;;;;;;;;;;;;;;;5052726;28;20479;-60
2022/11/07 14:15:25;;;;;;;;;;;;;;;;;;5029354;28;19928;-60
2022/11/07 14:17:51;;;;;;;;;;;;;;;;;;5054123;28;19924;-59
2022/11/07 14:20:18;;;;;;;;;;;;;;;;;;5057698;28;20363;-60
2022/11/07 14:22:44;;;;;;;;;;;;;;;;;;5054700;28;19928;-60
2022/11/07 14:25:10;;;;;;;;;;;;;;;;;;5064782;28;19973;-60
2022/11/07 14:27:36;;;;;;;;;;;;;;;;;;5062866;28;20401;-60
2022/11/07 14:30:02;;;;;;;;;;;;;;;;;;5067155;28;19970;-60
2022/11/07 14:32:27;;;;;;;;;;;;;;;;;;5065023;28;20032;-60
2022/11/07 14:34:53;;;;;;;;;;;;;;;;;;5063845;28;19927;-60
2022/11/07 14:37:19;;;;;;;;;;;;;;;;;;5064386;28;20294;-60
2022/11/07 14:39:45;;;;;;;;;;;;;;;;;;5069231;28;20492;-60
2022/11/07 14:42:11;;;;;;;;;;;;;;;;;;5058520;28;19968;-60
2022/11/07 14:44:37;;;;;;;;;;;;;;;;;;5058437;28;19924;-60
2022/11/07 14:47:03;;;;;;;;;;;;;;;;;;5061581;28;20038;-59
2022/11/07 14:49:29;;;;;;;;;;;;;;;;;;5053568;28;19967;-59
2022/11/07 14:51:55;;;;;;;;;;;;;;;;;;5058220;28;21205;-59
2022/11/07 14:54:21;;;;;;;;;;;;;;;;;;5044068;28;19920;-60
2022/11/07 14:56:47;;;;;;;;;;;;;;;;;;5062944;28;19959;-59
2022/11/07 14:59:13;;;;;;;;;;;;;;;;;;5047811;28;19924;-59
2022/11/07 15:01:38;;;;;;;;;;;;;;;;;;5051670;28;19920;-59
2022/11/07 15:04:04;;;;;;;;;;;;;;;;;;5048049;28;20020;-60
2022/11/07 15:06:33;;;;;;;;;;;;;;;;;;5048821;28;20396;-60
2022/11/07 15:08:59;;;;;;;;;;;;;;;;;;5056348;28;19927;-60
2022/11/07 15:11:25;;;;;;;;;;;;;;;;;;5059807;28;20366;-59
2022/11/07 15:13:51;;;;;;;;;;;;;;;;;;5055097;28;19981;-59
2022/11/07 15:16:17;;;;;;;;;;;;;;;;;;5058535;28;19928;-59
2022/11/07 15:18:43;;;;;;;;;;;;;;;;;;5061477;28;19920;-60
2022/11/07 15:21:09;;;;;;;;;;;;;;;;;;5057019;28;19931;-60
2022/11/07 15:23:34;;;;;;;;;;;;;;;;;;5052214;28;19920;-59
2022/11/07 15:26:02;;;;;;;;;;;;;;;;;;5055859;28;19932;-60
2022/11/07 15:28:27;;;;;;;;;;;;;;;;;;5053106;28;19936;-59
2022/11/07 15:30:53;;;;;;;;;;;;;;;;;;5049172;28;19924;-60
2022/11/07 15:33:19;;;;;;;;;;;;;;;;;;5057882;28;19920;-59
2022/11/07 15:35:45;;;;;;;;;;;;;;;;;;5053365;28;19943;-59
2022/11/07 15:38:11;;;;;;;;;;;;;;;;;;5062934;28;19928;-60
2022/11/07 15:40:37;;;;;;;;;;;;;;;;;;5055716;28;20269;-59
2022/11/07 15:43:03;;;;;;;;;;;;;;;;;;5063599;28;20329;-59
2022/11/07 15:45:29;;;;;;;;;;;;;;;;;;5056671;28;19920;-60
2022/11/07 15:47:55;;;;;;;;;;;;;;;;;;5052734;28;19925;-60
2022/11/07 15:50:21;;;;;;;;;;;;;;;;;;5052848;28;20514;-60
2022/11/07 15:52:46;;;;;;;;;;;;;;;;;;5058396;28;19925;-60
2022/11/07 15:55:13;;;;;;;;;;;;;;;;;;5053152;28;19927;-60
2022/11/07 15:57:38;;;;;;;;;;;;;;;;;;5054163;28;20010;-60
2022/11/07 16:00:04;;;;;;;;;;;;;;;;;;5049807;28;19921;-60
2022/11/07 16:02:30;;;;;;;;;;;;;;;;;;5052700;28;19921;-60
2022/11/07 16:04:56;;;;;;;;;;;;;;;;;;5057323;28;19957;-60
2022/11/07 16:07:22;;;;;;;;;;;;;;;;;;5051883;28;19920;-60
2022/11/07 16:09:48;;;;;;;;;;;;;;;;;;5053791;28;20348;-60
2022/11/07 16:12:14;;;;;;;;;;;;;;;;;;5059283;28;20010;-60
2022/11/07 16:14:40;;;;;;;;;;;;;;;;;;5057452;28;19982;-59
2022/11/07 16:17:06;;;;;;;;;;;;;;;;;;5051651;28;19939;-60
2022/11/07 16:19:32;;;;;;;;;;;;;;;;;;5047846;28;19925;-60
2022/11/07 16:21:58;;;;;;;;;;;;;;;;;;5054827;28;19940;-60
2022/11/07 16:24:23;;;;;;;;;;;;;;;;;;5049363;28;19952;-59
2022/11/07 16:26:49;;;;;;;;;;;;;;;;;;5056111;28;19920;-60
2022/11/07 16:29:15;;;;;;;;;;;;;;;;;;5058289;28;19981;-60
2022/11/07 16:31:41;;;;;;;;;;;;;;;;;;5055877;28;19924;-60
2022/11/07 16:34:07;;;;;;;;;;;;;;;;;;5053736;28;20378;-61
2022/11/07 16:36:33;;;;;;;;;;;;;;;;;;5053508;28;19927;-61